sensor_id;sensor_type;location;lat;lon;timestamp;P1;durP1;ratioP1;P2;durP2;ratioP2
37063;SDS011;23211;53.912;9.138;2022-12-05T00:01:15;8.50;;;5.05;;
37063;SDS011;23211;53.912;9.138;2022-12-05T00:04:03;10.05;;;5.32;;
37063;SDS011;23211;53.912;9.138;2022-12-05T00:06:50;8.63;;;5.38;;
37063;SDS011;23211;53.912;9.138;2022-12-05T00:09:36;7.38;;;5.28;;
37063;SDS011;23211;53.912;9.138;2022-12-05T00:12:22;8.40;;;4.93;;
37063;SDS011;23211;53.912;9.138;2022-12-05T00:15:08;8.60;;;5.15;;
37063;SDS011;23211;53.912;9.138;2022-12-05T00:17:56;6.10;;;5.00;;
37063;SDS011;23211;53.912;9.138;2022-12-05T00:20:46;7.85;;;5.50;;
37063;SDS011;23211;53.912;9.138;2022-12-05T00:23:33;8.63;;;5.60;;
37063;SDS011;23211;53.912;9.138;2022-12-05T00:26:19;7.30;;;5.03;;
37063;SDS011;23211;53.912;9.138;2022-12-05T00:29:05;6.18;;;5.10;;
37063;SDS011;23211;53.912;9.138;2022-12-05T00:31:51;11.70;;;5.95;;
37063;SDS011;23211;53.912;9.138;2022-12-05T00:34:37;6.50;;;4.93;;
37063;SDS011;23211;53.912;9.138;2022-12-05T00:37:23;7.50;;;5.25;;
37063;SDS011;23211;53.912;9.138;2022-12-05T00:40:09;8.40;;;5.38;;
37063;SDS011;23211;53.912;9.138;2022-12-05T00:42:55;9.38;;;6.53;;
37063;SDS011;23211;53.912;9.138;2022-12-05T00:45:41;9.43;;;5.88;;
37063;SDS011;23211;53.912;9.138;2022-12-05T00:48:27;7.43;;;5.25;;
37063;SDS011;23211;53.912;9.138;2022-12-05T00:51:14;8.45;;;5.88;;
37063;SDS011;23211;53.912;9.138;2022-12-05T00:54:06;7.75;;;5.55;;
37063;SDS011;23211;53.912;9.138;2022-12-05T00:56:54;10.05;;;5.55;;
37063;SDS011;23211;53.912;9.138;2022-12-05T00:59:40;8.93;;;5.63;;
37063;SDS011;23211;53.912;9.138;2022-12-05T01:02:26;6.22;;;4.75;;
37063;SDS011;23211;53.912;9.138;2022-12-05T01:05:12;6.95;;;5.38;;
37063;SDS011;23211;53.912;9.138;2022-12-05T01:07:58;8.32;;;5.32;;
37063;SDS011;23211;53.912;9.138;2022-12-05T01:10:50;12.43;;;5.55;;
37063;SDS011;23211;53.912;9.138;2022-12-05T01:13:37;7.38;;;5.32;;
37063;SDS011;23211;53.912;9.138;2022-12-05T01:16:34;9.40;;;5.20;;
37063;SDS011;23211;53.912;9.138;2022-12-05T01:19:23;8.43;;;5.10;;
37063;SDS011;23211;53.912;9.138;2022-12-05T01:22:10;8.40;;;5.60;;
37063;SDS011;23211;53.912;9.138;2022-12-05T01:24:56;9.88;;;4.95;;
37063;SDS011;23211;53.912;9.138;2022-12-05T01:27:43;7.07;;;4.88;;
37063;SDS011;23211;53.912;9.138;2022-12-05T01:30:29;6.07;;;4.57;;
37063;SDS011;23211;53.912;9.138;2022-12-05T01:33:15;8.23;;;4.90;;
37063;SDS011;23211;53.912;9.138;2022-12-05T01:36:02;6.35;;;4.60;;
37063;SDS011;23211;53.912;9.138;2022-12-05T01:38:48;11.52;;;4.93;;
37063;SDS011;23211;53.912;9.138;2022-12-05T01:41:36;6.35;;;4.80;;
37063;SDS011;23211;53.912;9.138;2022-12-05T01:47:10;9.00;;;4.78;;
37063;SDS011;23211;53.912;9.138;2022-12-05T01:49:56;5.88;;;4.18;;
37063;SDS011;23211;53.912;9.138;2022-12-05T01:52:44;6.05;;;4.13;;
37063;SDS011;23211;53.912;9.138;2022-12-05T01:55:30;6.28;;;4.30;;
37063;SDS011;23211;53.912;9.138;2022-12-05T01:58:16;6.82;;;4.30;;
37063;SDS011;23211;53.912;9.138;2022-12-05T02:01:03;6.43;;;4.10;;
37063;SDS011;23211;53.912;9.138;2022-12-05T02:03:49;6.15;;;4.10;;
37063;SDS011;23211;53.912;9.138;2022-12-05T02:06:38;6.80;;;4.10;;
37063;SDS011;23211;53.912;9.138;2022-12-05T02:09:24;7.25;;;4.22;;
37063;SDS011;23211;53.912;9.138;2022-12-05T02:12:10;8.27;;;4.50;;
37063;SDS011;23211;53.912;9.138;2022-12-05T02:15:13;6.55;;;4.57;;
37063;SDS011;23211;53.912;9.138;2022-12-05T02:29:54;8.90;;;4.30;;
37063;SDS011;23211;53.912;9.138;2022-12-05T02:36:38;5.60;;;4.22;;
37063;SDS011;23211;53.912;9.138;2022-12-05T02:42:30;7.38;;;3.95;;
37063;SDS011;23211;53.912;9.138;2022-12-05T02:45:22;7.65;;;4.53;;
37063;SDS011;23211;53.912;9.138;2022-12-05T02:48:11;7.38;;;4.15;;
37063;SDS011;23211;53.912;9.138;2022-12-05T02:50:59;7.53;;;4.55;;
37063;SDS011;23211;53.912;9.138;2022-12-05T02:53:48;9.70;;;4.75;;
37063;SDS011;23211;53.912;9.138;2022-12-05T02:56:36;7.32;;;4.70;;
37063;SDS011;23211;53.912;9.138;2022-12-05T02:59:22;6.95;;;4.70;;
37063;SDS011;23211;53.912;9.138;2022-12-05T03:02:10;11.07;;;4.90;;
37063;SDS011;23211;53.912;9.138;2022-12-05T03:07:56;10.57;;;5.00;;
37063;SDS011;23211;53.912;9.138;2022-12-05T03:10:44;13.90;;;5.22;;
37063;SDS011;23211;53.912;9.138;2022-12-05T03:13:35;8.25;;;4.85;;
37063;SDS011;23211;53.912;9.138;2022-12-05T03:17:02;9.45;;;5.25;;
37063;SDS011;23211;53.912;9.138;2022-12-05T03:19:51;9.90;;;4.90;;
37063;SDS011;23211;53.912;9.138;2022-12-05T03:26:17;15.35;;;4.80;;
37063;SDS011;23211;53.912;9.138;2022-12-05T03:29:21;9.50;;;4.90;;
37063;SDS011;23211;53.912;9.138;2022-12-05T03:32:36;9.35;;;4.72;;
37063;SDS011;23211;53.912;9.138;2022-12-05T03:35:44;8.68;;;4.57;;
37063;SDS011;23211;53.912;9.138;2022-12-05T03:38:48;8.57;;;4.75;;
37063;SDS011;23211;53.912;9.138;2022-12-05T03:41:45;12.18;;;5.45;;
37063;SDS011;23211;53.912;9.138;2022-12-05T03:44:56;9.73;;;4.65;;
37063;SDS011;23211;53.912;9.138;2022-12-05T03:51:09;8.20;;;4.60;;
37063;SDS011;23211;53.912;9.138;2022-12-05T03:54:03;8.57;;;4.72;;
37063;SDS011;23211;53.912;9.138;2022-12-05T03:56:58;12.13;;;5.00;;
37063;SDS011;23211;53.912;9.138;2022-12-05T04:06:08;11.80;;;4.72;;
37063;SDS011;23211;53.912;9.138;2022-12-05T04:08:52;7.65;;;4.20;;
37063;SDS011;23211;53.912;9.138;2022-12-05T04:11:44;7.45;;;4.60;;
37063;SDS011;23211;53.912;9.138;2022-12-05T04:14:39;8.10;;;4.47;;
37063;SDS011;23211;53.912;9.138;2022-12-05T04:17:32;11.85;;;5.18;;
37063;SDS011;23211;53.912;9.138;2022-12-05T04:23:32;9.40;;;5.43;;
37063;SDS011;23211;53.912;9.138;2022-12-05T04:26:23;7.00;;;4.82;;
37063;SDS011;23211;53.912;9.138;2022-12-05T04:29:23;9.05;;;5.35;;
37063;SDS011;23211;53.912;9.138;2022-12-05T04:32:13;12.65;;;5.38;;
37063;SDS011;23211;53.912;9.138;2022-12-05T04:35:00;13.65;;;4.80;;
37063;SDS011;23211;53.912;9.138;2022-12-05T04:37:51;8.50;;;5.53;;
37063;SDS011;23211;53.912;9.138;2022-12-05T04:43:36;12.93;;;5.43;;
37063;SDS011;23211;53.912;9.138;2022-12-05T04:46:25;7.63;;;5.50;;
37063;SDS011;23211;53.912;9.138;2022-12-05T04:49:12;12.75;;;6.00;;
37063;SDS011;23211;53.912;9.138;2022-12-05T04:52:03;8.93;;;5.90;;
37063;SDS011;23211;53.912;9.138;2022-12-05T04:55:00;10.20;;;6.97;;
37063;SDS011;23211;53.912;9.138;2022-12-05T05:03:50;11.90;;;6.40;;
37063;SDS011;23211;53.912;9.138;2022-12-05T05:06:57;11.65;;;6.30;;
37063;SDS011;23211;53.912;9.138;2022-12-05T05:09:43;12.32;;;6.30;;
37063;SDS011;23211;53.912;9.138;2022-12-05T05:12:29;10.95;;;6.38;;
37063;SDS011;23211;53.912;9.138;2022-12-05T05:15:15;15.10;;;6.75;;
37063;SDS011;23211;53.912;9.138;2022-12-05T05:18:01;17.60;;;7.65;;
37063;SDS011;23211;53.912;9.138;2022-12-05T05:20:47;10.75;;;6.63;;
37063;SDS011;23211;53.912;9.138;2022-12-05T05:23:33;13.20;;;8.05;;
37063;SDS011;23211;53.912;9.138;2022-12-05T05:26:19;12.85;;;6.97;;
37063;SDS011;23211;53.912;9.138;2022-12-05T05:29:05;15.35;;;8.27;;
37063;SDS011;23211;53.912;9.138;2022-12-05T05:31:51;14.18;;;8.10;;
37063;SDS011;23211;53.912;9.138;2022-12-05T05:34:37;14.63;;;7.60;;
37063;SDS011;23211;53.912;9.138;2022-12-05T05:37:23;14.75;;;6.95;;
37063;SDS011;23211;53.912;9.138;2022-12-05T05:40:10;10.95;;;7.45;;
37063;SDS011;23211;53.912;9.138;2022-12-05T05:42:58;11.50;;;7.47;;
37063;SDS011;23211;53.912;9.138;2022-12-05T05:45:44;14.27;;;8.00;;
37063;SDS011;23211;53.912;9.138;2022-12-05T05:48:29;17.30;;;8.05;;
37063;SDS011;23211;53.912;9.138;2022-12-05T05:51:16;15.98;;;8.60;;
37063;SDS011;23211;53.912;9.138;2022-12-05T05:54:03;14.15;;;8.45;;
37063;SDS011;23211;53.912;9.138;2022-12-05T05:56:49;16.48;;;8.10;;
37063;SDS011;23211;53.912;9.138;2022-12-05T05:59:35;13.32;;;7.75;;
37063;SDS011;23211;53.912;9.138;2022-12-05T06:02:21;13.52;;;8.40;;
37063;SDS011;23211;53.912;9.138;2022-12-05T06:05:07;12.32;;;7.75;;
37063;SDS011;23211;53.912;9.138;2022-12-05T06:07:53;13.13;;;7.45;;
37063;SDS011;23211;53.912;9.138;2022-12-05T06:10:39;22.05;;;9.00;;
37063;SDS011;23211;53.912;9.138;2022-12-05T06:13:25;13.00;;;7.75;;
37063;SDS011;23211;53.912;9.138;2022-12-05T06:16:12;12.20;;;7.97;;
37063;SDS011;23211;53.912;9.138;2022-12-05T06:18:59;18.48;;;7.13;;
37063;SDS011;23211;53.912;9.138;2022-12-05T06:21:47;12.27;;;7.72;;
37063;SDS011;23211;53.912;9.138;2022-12-05T06:24:33;11.68;;;7.45;;
37063;SDS011;23211;53.912;9.138;2022-12-05T06:27:19;18.83;;;7.82;;
37063;SDS011;23211;53.912;9.138;2022-12-05T06:30:05;14.65;;;7.13;;
37063;SDS011;23211;53.912;9.138;2022-12-05T06:32:51;11.90;;;7.50;;
37063;SDS011;23211;53.912;9.138;2022-12-05T06:35:37;10.55;;;6.78;;
37063;SDS011;23211;53.912;9.138;2022-12-05T06:38:23;10.82;;;6.55;;
37063;SDS011;23211;53.912;9.138;2022-12-05T06:41:10;9.57;;;6.28;;
37063;SDS011;23211;53.912;9.138;2022-12-05T06:44:01;9.90;;;5.55;;
37063;SDS011;23211;53.912;9.138;2022-12-05T06:46:47;11.68;;;5.97;;
37063;SDS011;23211;53.912;9.138;2022-12-05T06:49:33;12.43;;;5.47;;
37063;SDS011;23211;53.912;9.138;2022-12-05T06:52:20;9.60;;;5.55;;
37063;SDS011;23211;53.912;9.138;2022-12-05T06:55:06;9.73;;;4.90;;
37063;SDS011;23211;53.912;9.138;2022-12-05T06:57:52;12.50;;;4.88;;
37063;SDS011;23211;53.912;9.138;2022-12-05T07:00:38;8.05;;;5.05;;
37063;SDS011;23211;53.912;9.138;2022-12-05T07:03:42;11.45;;;4.93;;
37063;SDS011;23211;53.912;9.138;2022-12-05T07:06:28;8.05;;;4.78;;
37063;SDS011;23211;53.912;9.138;2022-12-05T07:09:14;9.68;;;4.63;;
37063;SDS011;23211;53.912;9.138;2022-12-05T07:12:01;6.72;;;4.63;;
37063;SDS011;23211;53.912;9.138;2022-12-05T07:14:46;6.57;;;4.32;;
37063;SDS011;23211;53.912;9.138;2022-12-05T07:17:36;7.35;;;4.53;;
37063;SDS011;23211;53.912;9.138;2022-12-05T07:20:23;5.80;;;4.60;;
37063;SDS011;23211;53.912;9.138;2022-12-05T07:23:09;9.10;;;4.50;;
37063;SDS011;23211;53.912;9.138;2022-12-05T07:25:55;5.88;;;4.32;;
37063;SDS011;23211;53.912;9.138;2022-12-05T07:28:42;7.28;;;3.90;;
37063;SDS011;23211;53.912;9.138;2022-12-05T07:31:28;8.90;;;4.45;;
37063;SDS011;23211;53.912;9.138;2022-12-05T07:34:14;9.40;;;4.38;;
37063;SDS011;23211;53.912;9.138;2022-12-05T07:37:00;5.70;;;4.35;;
37063;SDS011;23211;53.912;9.138;2022-12-05T07:39:45;7.25;;;4.10;;
37063;SDS011;23211;53.912;9.138;2022-12-05T07:42:31;8.13;;;4.13;;
37063;SDS011;23211;53.912;9.138;2022-12-05T07:45:18;5.60;;;3.65;;
37063;SDS011;23211;53.912;9.138;2022-12-05T07:48:04;6.68;;;3.83;;
37063;SDS011;23211;53.912;9.138;2022-12-05T07:50:50;7.88;;;4.60;;
37063;SDS011;23211;53.912;9.138;2022-12-05T07:53:36;7.07;;;4.20;;
37063;SDS011;23211;53.912;9.138;2022-12-05T07:56:23;7.63;;;4.65;;
37063;SDS011;23211;53.912;9.138;2022-12-05T07:59:09;6.88;;;3.88;;
37063;SDS011;23211;53.912;9.138;2022-12-05T08:01:54;6.93;;;4.25;;
37063;SDS011;23211;53.912;9.138;2022-12-05T08:04:40;5.55;;;4.18;;
37063;SDS011;23211;53.912;9.138;2022-12-05T08:07:26;7.30;;;3.58;;
37063;SDS011;23211;53.912;9.138;2022-12-05T08:10:12;5.13;;;3.50;;
37063;SDS011;23211;53.912;9.138;2022-12-05T08:12:58;6.63;;;3.05;;
37063;SDS011;23211;53.912;9.138;2022-12-05T08:15:44;4.93;;;3.47;;
37063;SDS011;23211;53.912;9.138;2022-12-05T08:18:29;5.88;;;3.50;;
37063;SDS011;23211;53.912;9.138;2022-12-05T08:21:17;6.68;;;3.55;;
37063;SDS011;23211;53.912;9.138;2022-12-05T08:24:04;3.63;;;2.83;;
37063;SDS011;23211;53.912;9.138;2022-12-05T08:26:51;5.55;;;3.28;;
37063;SDS011;23211;53.912;9.138;2022-12-05T08:29:37;4.43;;;2.90;;
37063;SDS011;23211;53.912;9.138;2022-12-05T08:32:22;6.05;;;3.00;;
37063;SDS011;23211;53.912;9.138;2022-12-05T08:35:08;4.18;;;2.65;;
37063;SDS011;23211;53.912;9.138;2022-12-05T08:37:54;4.50;;;3.50;;
37063;SDS011;23211;53.912;9.138;2022-12-05T08:40:40;3.78;;;3.00;;
37063;SDS011;23211;53.912;9.138;2022-12-05T08:43:26;4.75;;;3.13;;
37063;SDS011;23211;53.912;9.138;2022-12-05T08:46:13;5.82;;;2.88;;
37063;SDS011;23211;53.912;9.138;2022-12-05T08:48:59;3.08;;;2.67;;
37063;SDS011;23211;53.912;9.138;2022-12-05T08:51:45;5.07;;;2.58;;
37063;SDS011;23211;53.912;9.138;2022-12-05T08:54:31;3.47;;;2.45;;
37063;SDS011;23211;53.912;9.138;2022-12-05T08:57:17;5.30;;;2.88;;
37063;SDS011;23211;53.912;9.138;2022-12-05T09:00:03;4.60;;;3.00;;
37063;SDS011;23211;53.912;9.138;2022-12-05T09:02:51;5.47;;;3.35;;
37063;SDS011;23211;53.912;9.138;2022-12-05T09:05:37;4.95;;;3.13;;
37063;SDS011;23211;53.912;9.138;2022-12-05T09:08:23;6.38;;;3.50;;
37063;SDS011;23211;53.912;9.138;2022-12-05T09:11:12;7.43;;;3.35;;
37063;SDS011;23211;53.912;9.138;2022-12-05T09:14:00;5.93;;;3.70;;
37063;SDS011;23211;53.912;9.138;2022-12-05T09:16:47;6.78;;;3.50;;
37063;SDS011;23211;53.912;9.138;2022-12-05T09:19:32;7.72;;;4.03;;
37063;SDS011;23211;53.912;9.138;2022-12-05T09:22:18;7.20;;;4.20;;
37063;SDS011;23211;53.912;9.138;2022-12-05T09:25:05;8.82;;;3.85;;
37063;SDS011;23211;53.912;9.138;2022-12-05T09:27:51;9.40;;;4.45;;
37063;SDS011;23211;53.912;9.138;2022-12-05T09:30:39;7.78;;;4.28;;
37063;SDS011;23211;53.912;9.138;2022-12-05T09:33:25;6.28;;;3.60;;
37063;SDS011;23211;53.912;9.138;2022-12-05T09:36:11;6.32;;;4.03;;
37063;SDS011;23211;53.912;9.138;2022-12-05T09:39:00;5.85;;;3.58;;
37063;SDS011;23211;53.912;9.138;2022-12-05T09:41:58;6.80;;;3.60;;
37063;SDS011;23211;53.912;9.138;2022-12-05T09:45:20;6.88;;;3.60;;
37063;SDS011;23211;53.912;9.138;2022-12-05T09:48:15;10.23;;;4.25;;
37063;SDS011;23211;53.912;9.138;2022-12-05T09:51:06;7.95;;;4.03;;
37063;SDS011;23211;53.912;9.138;2022-12-05T09:53:55;8.77;;;4.32;;
37063;SDS011;23211;53.912;9.138;2022-12-05T09:56:42;6.32;;;4.20;;
37063;SDS011;23211;53.912;9.138;2022-12-05T09:59:29;6.20;;;4.00;;
37063;SDS011;23211;53.912;9.138;2022-12-05T10:02:25;9.15;;;4.28;;
37063;SDS011;23211;53.912;9.138;2022-12-05T10:05:26;10.93;;;4.32;;
37063;SDS011;23211;53.912;9.138;2022-12-05T10:08:25;9.55;;;4.45;;
37063;SDS011;23211;53.912;9.138;2022-12-05T10:11:19;8.88;;;4.30;;
37063;SDS011;23211;53.912;9.138;2022-12-05T10:14:31;6.03;;;3.65;;
37063;SDS011;23211;53.912;9.138;2022-12-05T10:17:34;8.07;;;4.28;;
37063;SDS011;23211;53.912;9.138;2022-12-05T10:20:27;8.00;;;3.85;;
37063;SDS011;23211;53.912;9.138;2022-12-05T10:26:32;8.00;;;4.72;;
37063;SDS011;23211;53.912;9.138;2022-12-05T10:32:36;14.00;;;4.70;;
37063;SDS011;23211;53.912;9.138;2022-12-05T10:35:35;6.40;;;3.78;;
37063;SDS011;23211;53.912;9.138;2022-12-05T10:38:26;6.43;;;4.07;;
37063;SDS011;23211;53.912;9.138;2022-12-05T10:41:15;7.47;;;4.47;;
37063;SDS011;23211;53.912;9.138;2022-12-05T10:44:02;7.55;;;4.50;;
37063;SDS011;23211;53.912;9.138;2022-12-05T10:46:49;7.55;;;4.45;;
37063;SDS011;23211;53.912;9.138;2022-12-05T10:49:37;11.43;;;4.63;;
37063;SDS011;23211;53.912;9.138;2022-12-05T10:52:23;9.07;;;4.85;;
37063;SDS011;23211;53.912;9.138;2022-12-05T10:55:12;7.75;;;4.38;;
37063;SDS011;23211;53.912;9.138;2022-12-05T11:00:58;8.18;;;4.57;;
37063;SDS011;23211;53.912;9.138;2022-12-05T11:03:59;7.70;;;4.82;;
37063;SDS011;23211;53.912;9.138;2022-12-05T11:06:52;9.05;;;4.40;;
37063;SDS011;23211;53.912;9.138;2022-12-05T11:09:41;11.35;;;4.78;;
37063;SDS011;23211;53.912;9.138;2022-12-05T11:15:19;12.25;;;4.78;;
37063;SDS011;23211;53.912;9.138;2022-12-05T11:21:11;9.07;;;4.55;;
37063;SDS011;23211;53.912;9.138;2022-12-05T11:24:00;9.70;;;4.63;;
37063;SDS011;23211;53.912;9.138;2022-12-05T11:27:26;9.52;;;4.57;;
37063;SDS011;23211;53.912;9.138;2022-12-05T11:30:17;10.57;;;4.90;;
37063;SDS011;23211;53.912;9.138;2022-12-05T11:38:58;7.53;;;4.60;;
37063;SDS011;23211;53.912;9.138;2022-12-05T12:01:35;5.32;;;3.58;;
37063;SDS011;23211;53.912;9.138;2022-12-05T12:10:17;5.95;;;3.60;;
37063;SDS011;23211;53.912;9.138;2022-12-05T12:19:16;9.23;;;3.40;;
37063;SDS011;23211;53.912;9.138;2022-12-05T12:31:39;7.68;;;3.42;;
37063;SDS011;23211;53.912;9.138;2022-12-05T12:50:25;6.93;;;3.17;;
37063;SDS011;23211;53.912;9.138;2022-12-05T12:59:42;6.20;;;3.00;;
37063;SDS011;23211;53.912;9.138;2022-12-05T13:02:42;5.10;;;3.00;;
37063;SDS011;23211;53.912;9.138;2022-12-05T13:08:46;4.15;;;2.67;;
37063;SDS011;23211;53.912;9.138;2022-12-05T13:11:37;5.18;;;2.50;;
37063;SDS011;23211;53.912;9.138;2022-12-05T13:14:25;4.85;;;2.33;;
37063;SDS011;23211;53.912;9.138;2022-12-05T13:17:14;5.05;;;2.35;;
37063;SDS011;23211;53.912;9.138;2022-12-05T13:20:04;3.72;;;2.17;;
37063;SDS011;23211;53.912;9.138;2022-12-05T13:22:51;2.70;;;2.03;;
37063;SDS011;23211;53.912;9.138;2022-12-05T13:25:38;3.97;;;2.10;;
37063;SDS011;23211;53.912;9.138;2022-12-05T13:28:36;3.42;;;2.17;;
37063;SDS011;23211;53.912;9.138;2022-12-05T13:31:38;5.13;;;2.92;;
37063;SDS011;23211;53.912;9.138;2022-12-05T13:37:30;5.68;;;2.40;;
37063;SDS011;23211;53.912;9.138;2022-12-05T13:40:39;3.90;;;2.13;;
37063;SDS011;23211;53.912;9.138;2022-12-05T13:43:55;5.95;;;2.13;;
37063;SDS011;23211;53.912;9.138;2022-12-05T13:46:41;4.60;;;2.25;;
37063;SDS011;23211;53.912;9.138;2022-12-05T13:49:33;3.58;;;2.10;;
37063;SDS011;23211;53.912;9.138;2022-12-05T13:52:27;3.50;;;2.03;;
37063;SDS011;23211;53.912;9.138;2022-12-05T13:58:02;3.97;;;2.53;;
37063;SDS011;23211;53.912;9.138;2022-12-05T14:04:23;4.15;;;2.50;;
37063;SDS011;23211;53.912;9.138;2022-12-05T14:07:47;4.68;;;1.88;;
37063;SDS011;23211;53.912;9.138;2022-12-05T14:34:34;4.50;;;2.88;;
37063;SDS011;23211;53.912;9.138;2022-12-05T14:37:26;5.28;;;3.08;;
37063;SDS011;23211;53.912;9.138;2022-12-05T14:43:26;5.40;;;3.45;;
37063;SDS011;23211;53.912;9.138;2022-12-05T14:46:20;6.32;;;2.97;;
37063;SDS011;23211;53.912;9.138;2022-12-05T14:52:37;7.50;;;3.42;;
37063;SDS011;23211;53.912;9.138;2022-12-05T14:55:25;4.93;;;2.92;;
37063;SDS011;23211;53.912;9.138;2022-12-05T14:58:24;7.65;;;2.80;;
37063;SDS011;23211;53.912;9.138;2022-12-05T15:01:18;6.70;;;3.13;;
37063;SDS011;23211;53.912;9.138;2022-12-05T15:07:03;8.80;;;2.83;;
37063;SDS011;23211;53.912;9.138;2022-12-05T15:09:59;5.97;;;2.88;;
37063;SDS011;23211;53.912;9.138;2022-12-05T15:13:02;6.03;;;3.00;;
37063;SDS011;23211;53.912;9.138;2022-12-05T15:16:04;4.55;;;2.85;;
37063;SDS011;23211;53.912;9.138;2022-12-05T15:19:01;5.97;;;2.80;;
37063;SDS011;23211;53.912;9.138;2022-12-05T15:21:53;4.85;;;2.80;;
37063;SDS011;23211;53.912;9.138;2022-12-05T15:24:42;4.78;;;2.72;;
37063;SDS011;23211;53.912;9.138;2022-12-05T15:27:28;9.55;;;3.17;;
37063;SDS011;23211;53.912;9.138;2022-12-05T15:30:14;6.68;;;3.83;;
37063;SDS011;23211;53.912;9.138;2022-12-05T15:33:01;5.38;;;3.30;;
37063;SDS011;23211;53.912;9.138;2022-12-05T15:35:47;6.43;;;3.10;;
37063;SDS011;23211;53.912;9.138;2022-12-05T15:38:38;6.25;;;3.00;;
37063;SDS011;23211;53.912;9.138;2022-12-05T15:41:25;5.55;;;3.10;;
37063;SDS011;23211;53.912;9.138;2022-12-05T15:44:12;5.72;;;3.28;;
37063;SDS011;23211;53.912;9.138;2022-12-05T15:46:57;5.25;;;2.90;;
37063;SDS011;23211;53.912;9.138;2022-12-05T15:49:44;7.30;;;3.03;;
37063;SDS011;23211;53.912;9.138;2022-12-05T15:52:32;5.55;;;2.70;;
37063;SDS011;23211;53.912;9.138;2022-12-05T15:55:25;4.00;;;2.85;;
37063;SDS011;23211;53.912;9.138;2022-12-05T15:58:26;6.22;;;3.50;;
37063;SDS011;23211;53.912;9.138;2022-12-05T16:01:20;6.55;;;3.38;;
37063;SDS011;23211;53.912;9.138;2022-12-05T16:07:31;8.10;;;3.65;;
37063;SDS011;23211;53.912;9.138;2022-12-05T16:10:19;18.77;;;13.73;;
37063;SDS011;23211;53.912;9.138;2022-12-05T16:13:13;14.65;;;4.90;;
37063;SDS011;23211;53.912;9.138;2022-12-05T16:16:00;9.25;;;5.28;;
37063;SDS011;23211;53.912;9.138;2022-12-05T16:18:51;9.35;;;4.82;;
37063;SDS011;23211;53.912;9.138;2022-12-05T16:21:41;9.50;;;5.03;;
37063;SDS011;23211;53.912;9.138;2022-12-05T16:24:30;11.25;;;4.90;;
37063;SDS011;23211;53.912;9.138;2022-12-05T16:27:20;7.60;;;4.30;;
37063;SDS011;23211;53.912;9.138;2022-12-05T16:32:57;9.18;;;4.43;;
37063;SDS011;23211;53.912;9.138;2022-12-05T16:35:45;12.38;;;4.55;;
37063;SDS011;23211;53.912;9.138;2022-12-05T16:38:34;10.77;;;4.68;;
37063;SDS011;23211;53.912;9.138;2022-12-05T16:41:21;8.40;;;3.85;;
37063;SDS011;23211;53.912;9.138;2022-12-05T16:44:48;14.15;;;5.32;;
37063;SDS011;23211;53.912;9.138;2022-12-05T16:50:31;9.75;;;4.20;;
37063;SDS011;23211;53.912;9.138;2022-12-05T16:53:30;11.90;;;4.97;;
37063;SDS011;23211;53.912;9.138;2022-12-05T16:56:21;11.68;;;5.68;;
37063;SDS011;23211;53.912;9.138;2022-12-05T16:59:20;9.68;;;5.22;;
37063;SDS011;23211;53.912;9.138;2022-12-05T17:02:28;17.58;;;5.05;;
37063;SDS011;23211;53.912;9.138;2022-12-05T17:05:15;14.80;;;5.75;;
37063;SDS011;23211;53.912;9.138;2022-12-05T17:08:01;10.93;;;5.15;;
37063;SDS011;23211;53.912;9.138;2022-12-05T17:10:47;14.10;;;5.53;;
37063;SDS011;23211;53.912;9.138;2022-12-05T17:13:34;15.07;;;6.18;;
37063;SDS011;23211;53.912;9.138;2022-12-05T17:16:20;14.98;;;6.45;;
37063;SDS011;23211;53.912;9.138;2022-12-05T17:19:05;14.82;;;6.60;;
37063;SDS011;23211;53.912;9.138;2022-12-05T17:21:51;18.73;;;7.30;;
37063;SDS011;23211;53.912;9.138;2022-12-05T17:24:37;16.27;;;5.90;;
37063;SDS011;23211;53.912;9.138;2022-12-05T17:27:23;19.95;;;8.20;;
37063;SDS011;23211;53.912;9.138;2022-12-05T17:30:10;18.23;;;7.05;;
37063;SDS011;23211;53.912;9.138;2022-12-05T17:32:56;14.50;;;6.63;;
37063;SDS011;23211;53.912;9.138;2022-12-05T17:35:42;21.67;;;7.05;;
37063;SDS011;23211;53.912;9.138;2022-12-05T17:38:28;16.25;;;8.30;;
37063;SDS011;23211;53.912;9.138;2022-12-05T17:41:15;14.85;;;6.50;;
37063;SDS011;23211;53.912;9.138;2022-12-05T17:44:03;16.25;;;6.75;;
37063;SDS011;23211;53.912;9.138;2022-12-05T17:46:50;12.00;;;5.97;;
37063;SDS011;23211;53.912;9.138;2022-12-05T17:49:35;13.23;;;6.53;;
37063;SDS011;23211;53.912;9.138;2022-12-05T17:52:21;16.23;;;6.82;;
37063;SDS011;23211;53.912;9.138;2022-12-05T17:55:15;13.73;;;6.63;;
37063;SDS011;23211;53.912;9.138;2022-12-05T17:58:04;13.88;;;6.57;;
37063;SDS011;23211;53.912;9.138;2022-12-05T18:00:50;18.17;;;5.85;;
37063;SDS011;23211;53.912;9.138;2022-12-05T18:03:36;11.98;;;5.80;;
37063;SDS011;23211;53.912;9.138;2022-12-05T18:06:22;18.33;;;6.88;;
37063;SDS011;23211;53.912;9.138;2022-12-05T18:09:08;12.45;;;5.13;;
37063;SDS011;23211;53.912;9.138;2022-12-05T18:11:53;14.98;;;6.00;;
37063;SDS011;23211;53.912;9.138;2022-12-05T18:14:41;14.15;;;5.80;;
37063;SDS011;23211;53.912;9.138;2022-12-05T18:17:27;13.55;;;5.95;;
37063;SDS011;23211;53.912;9.138;2022-12-05T18:20:13;21.10;;;8.98;;
37063;SDS011;23211;53.912;9.138;2022-12-05T18:23:00;22.33;;;8.68;;
37063;SDS011;23211;53.912;9.138;2022-12-05T18:25:55;17.95;;;8.45;;
37063;SDS011;23211;53.912;9.138;2022-12-05T18:28:42;16.70;;;8.32;;
37063;SDS011;23211;53.912;9.138;2022-12-05T18:31:31;17.83;;;8.10;;
37063;SDS011;23211;53.912;9.138;2022-12-05T18:34:17;15.88;;;8.43;;
37063;SDS011;23211;53.912;9.138;2022-12-05T18:37:03;16.88;;;7.38;;
37063;SDS011;23211;53.912;9.138;2022-12-05T18:39:49;16.77;;;7.30;;
37063;SDS011;23211;53.912;9.138;2022-12-05T18:42:35;17.67;;;7.20;;
37063;SDS011;23211;53.912;9.138;2022-12-05T18:45:21;18.92;;;7.18;;
37063;SDS011;23211;53.912;9.138;2022-12-05T18:48:07;15.30;;;7.10;;
37063;SDS011;23211;53.912;9.138;2022-12-05T18:50:53;15.63;;;7.13;;
37063;SDS011;23211;53.912;9.138;2022-12-05T18:53:39;14.70;;;6.72;;
37063;SDS011;23211;53.912;9.138;2022-12-05T18:56:29;16.35;;;7.72;;
37063;SDS011;23211;53.912;9.138;2022-12-05T18:59:19;23.23;;;9.88;;
37063;SDS011;23211;53.912;9.138;2022-12-05T19:02:07;17.23;;;8.10;;
37063;SDS011;23211;53.912;9.138;2022-12-05T19:04:54;26.67;;;8.90;;
37063;SDS011;23211;53.912;9.138;2022-12-05T19:07:39;22.30;;;9.02;;
37063;SDS011;23211;53.912;9.138;2022-12-05T19:10:26;17.73;;;7.90;;
37063;SDS011;23211;53.912;9.138;2022-12-05T19:13:12;18.92;;;9.57;;
37063;SDS011;23211;53.912;9.138;2022-12-05T19:16:02;30.63;;;15.93;;
37063;SDS011;23211;53.912;9.138;2022-12-05T19:18:53;42.13;;;20.02;;
37063;SDS011;23211;53.912;9.138;2022-12-05T19:21:40;24.05;;;12.02;;
37063;SDS011;23211;53.912;9.138;2022-12-05T19:24:26;21.77;;;9.00;;
37063;SDS011;23211;53.912;9.138;2022-12-05T19:27:12;20.25;;;8.48;;
37063;SDS011;23211;53.912;9.138;2022-12-05T19:29:58;17.58;;;8.52;;
37063;SDS011;23211;53.912;9.138;2022-12-05T19:32:44;18.30;;;7.57;;
37063;SDS011;23211;53.912;9.138;2022-12-05T19:35:30;18.17;;;6.80;;
37063;SDS011;23211;53.912;9.138;2022-12-05T19:38:16;12.95;;;6.82;;
37063;SDS011;23211;53.912;9.138;2022-12-05T19:41:02;14.25;;;6.60;;
37063;SDS011;23211;53.912;9.138;2022-12-05T19:43:48;14.07;;;6.28;;
37063;SDS011;23211;53.912;9.138;2022-12-05T19:46:35;14.93;;;6.40;;
37063;SDS011;23211;53.912;9.138;2022-12-05T19:49:21;14.73;;;6.57;;
37063;SDS011;23211;53.912;9.138;2022-12-05T19:52:07;14.57;;;7.10;;
37063;SDS011;23211;53.912;9.138;2022-12-05T19:54:53;13.27;;;6.15;;
37063;SDS011;23211;53.912;9.138;2022-12-05T19:57:39;11.63;;;5.60;;
37063;SDS011;23211;53.912;9.138;2022-12-05T20:00:25;10.13;;;5.38;;
37063;SDS011;23211;53.912;9.138;2022-12-05T20:03:10;13.90;;;6.03;;
37063;SDS011;23211;53.912;9.138;2022-12-05T20:05:57;10.98;;;5.38;;